Time;durP1;ratioP1;P1;durP2;ratioP2;P2;SDS_P1;SDS_P2;PMS_P1;PMS_P2;Temp;Humidity;BMP_temperature;BMP_pressure;BME280_temperature;BME280_humidity;BME280_pressure;Samples;Min_cycle;Max_cycle;Signal;HPM_P1;HPM_P2
2024/02/25 00:01:12;;;;;;;6.55;1.80;;;;;;;;;;5093915;28;20468;-58
2024/02/25 00:03:38;;;;;;;2.72;1.58;;;;;;;;;;5093905;28;20035;-57
2024/02/25 00:06:04;;;;;;;3.30;1.42;;;;;;;;;;5090207;28;20031;-58
2024/02/25 00:08:31;;;;;;;4.97;1.92;;;;;;;;;;5091969;28;20058;-58
2024/02/25 00:10:58;;;;;;;4.03;1.70;;;;;;;;;;5092755;28;20059;-58
2024/02/25 00:13:25;;;;;;;4.68;1.52;;;;;;;;;;5094794;28;20032;-57
2024/02/25 00:15:51;;;;;;;2.20;1.40;;;;;;;;;;5094687;28;20040;-57
2024/02/25 00:18:17;;;;;;;3.13;2.05;;;;;;;;;;5103633;28;20040;-56
2024/02/25 00:20:43;;;;;;;3.47;1.50;;;;;;;;;;5107684;28;20475;-58
2024/02/25 00:23:09;;;;;;;3.75;1.63;;;;;;;;;;5103915;28;20028;-58
2024/02/25 00:25:37;;;;;;;4.18;1.58;;;;;;;;;;5103938;28;20104;-57
2024/02/25 00:28:04;;;;;;;2.78;1.88;;;;;;;;;;5090489;28;20047;-58
2024/02/25 00:30:30;;;;;;;2.17;1.45;;;;;;;;;;5096551;28;20043;-57
2024/02/25 00:32:56;;;;;;;3.63;2.13;;;;;;;;;;5104020;28;20080;-58
2024/02/25 00:35:22;;;;;;;3.28;2.03;;;;;;;;;;5113794;28;20444;-58
2024/02/25 00:37:48;;;;;;;4.00;2.20;;;;;;;;;;5107786;28;20028;-57
2024/02/25 00:40:15;;;;;;;5.53;2.15;;;;;;;;;;5097960;28;20055;-56
2024/02/25 00:42:41;;;;;;;3.95;2.60;;;;;;;;;;5114022;28;20446;-56
2024/02/25 00:45:07;;;;;;;3.47;2.30;;;;;;;;;;5105196;28;20024;-58
2024/02/25 00:47:36;;;;;;;7.30;2.15;;;;;;;;;;5094848;28;20365;-58
2024/02/25 00:50:03;;;;;;;3.58;2.35;;;;;;;;;;5109044;28;20719;-57
2024/02/25 00:52:31;;;;;;;4.30;2.28;;;;;;;;;;5111800;28;20479;-58
2024/02/25 00:54:58;;;;;;;5.45;2.78;;;;;;;;;;5092637;28;20050;-58
2024/02/25 00:57:24;;;;;;;4.25;2.20;;;;;;;;;;5093197;28;20032;-55
2024/02/25 00:59:50;;;;;;;3.83;2.20;;;;;;;;;;5095990;28;20016;-56
2024/02/25 01:02:16;;;;;;;3.97;1.90;;;;;;;;;;5094602;28;20036;-56
2024/02/25 01:04:42;;;;;;;4.63;1.90;;;;;;;;;;5094048;28;20064;-56
2024/02/25 01:07:08;;;;;;;4.05;1.90;;;;;;;;;;5093251;28;20039;-56
2024/02/25 01:09:34;;;;;;;3.40;1.98;;;;;;;;;;5096230;28;20387;-55
2024/02/25 01:12:00;;;;;;;4.18;2.35;;;;;;;;;;5093266;28;20037;-56
2024/02/25 01:14:26;;;;;;;4.88;1.98;;;;;;;;;;5082810;28;20016;-55
2024/02/25 01:16:54;;;;;;;3.17;1.83;;;;;;;;;;5093394;28;20040;-56
2024/02/25 01:19:20;;;;;;;4.85;2.25;;;;;;;;;;5107882;28;20027;-55
2024/02/25 01:21:47;;;;;;;3.92;2.00;;;;;;;;;;5096764;28;20039;-56
2024/02/25 01:24:13;;;;;;;4.10;2.20;;;;;;;;;;5098138;28;20024;-56
2024/02/25 01:26:42;;;;;;;4.25;1.88;;;;;;;;;;5097370;28;20024;-55
2024/02/25 01:29:08;;;;;;;3.15;2.03;;;;;;;;;;5087518;28;20035;-55
2024/02/25 01:31:41;;;;;;;7.43;2.25;;;;;;;;;;5111103;28;20028;-56
2024/02/25 01:34:07;;;;;;;4.68;2.10;;;;;;;;;;5107819;28;20024;-55
2024/02/25 01:36:32;;;;;;;3.25;1.92;;;;;;;;;;5109688;28;20542;-55
2024/02/25 01:38:59;;;;;;;4.18;1.70;;;;;;;;;;5093131;28;20467;-55
2024/02/25 01:41:25;;;;;;;4.47;2.22;;;;;;;;;;5091029;28;20119;-56
2024/02/25 01:43:51;;;;;;;4.30;2.10;;;;;;;;;;5092602;28;20060;-56
2024/02/25 01:46:17;;;;;;;4.38;1.92;;;;;;;;;;5089073;28;20035;-54
2024/02/25 01:48:45;;;;;;;4.53;1.95;;;;;;;;;;5113113;28;20028;-55
2024/02/25 01:51:11;;;;;;;4.75;1.80;;;;;;;;;;5107917;28;20051;-56
2024/02/25 01:53:37;;;;;;;3.47;1.92;;;;;;;;;;5107365;28;20494;-55
2024/02/25 01:56:03;;;;;;;3.17;1.70;;;;;;;;;;5098047;28;20026;-56
2024/02/25 01:58:30;;;;;;;4.43;2.30;;;;;;;;;;5107897;28;20128;-56
2024/02/25 02:00:56;;;;;;;2.92;1.85;;;;;;;;;;5092074;28;20032;-59
2024/02/25 02:03:22;;;;;;;3.17;2.15;;;;;;;;;;5103052;28;20058;-58
2024/02/25 02:05:48;;;;;;;2.72;1.73;;;;;;;;;;5107391;28;20031;-58
2024/02/25 02:08:14;;;;;;;3.15;1.90;;;;;;;;;;5092183;28;20475;-58
2024/02/25 02:10:40;;;;;;;2.95;1.85;;;;;;;;;;5092010;28;20106;-57
2024/02/25 02:13:07;;;;;;;3.30;1.50;;;;;;;;;;5091962;28;20031;-58
2024/02/25 02:15:33;;;;;;;3.90;1.98;;;;;;;;;;5095541;28;20024;-60
2024/02/25 02:18:00;;;;;;;3.60;2.10;;;;;;;;;;5092943;28;20047;-58
2024/02/25 02:20:28;;;;;;;4.68;2.00;;;;;;;;;;5091895;28;20032;-59
2024/02/25 02:22:54;;;;;;;2.05;1.52;;;;;;;;;;5099300;28;20111;-58
2024/02/25 02:25:20;;;;;;;3.67;2.22;;;;;;;;;;5112301;28;20088;-58
2024/02/25 02:27:46;;;;;;;3.70;1.90;;;;;;;;;;5094482;28;20016;-58
2024/02/25 02:30:12;;;;;;;4.30;2.00;;;;;;;;;;5092146;28;20391;-59
2024/02/25 02:32:39;;;;;;;3.17;1.70;;;;;;;;;;5090942;28;20137;-58
2024/02/25 02:35:05;;;;;;;4.82;2.25;;;;;;;;;;5102284;28;20531;-58
2024/02/25 02:37:31;;;;;;;2.55;1.50;;;;;;;;;;5091434;28;20034;-58
2024/02/25 02:39:57;;;;;;;3.38;1.58;;;;;;;;;;5108607;28;20111;-58
2024/02/25 02:42:23;;;;;;;2.95;1.73;;;;;;;;;;5099213;28;20027;-58
2024/02/25 02:44:50;;;;;;;3.33;1.70;;;;;;;;;;5102560;28;20517;-58
2024/02/25 02:47:23;;;;;;;3.08;1.80;;;;;;;;;;5088300;28;20018;-58
2024/02/25 02:49:49;;;;;;;4.63;1.77;;;;;;;;;;5091689;28;20120;-58
2024/02/25 02:52:15;;;;;;;3.63;2.10;;;;;;;;;;5091032;28;20476;-58
2024/02/25 02:54:41;;;;;;;4.60;2.13;;;;;;;;;;5092000;28;20028;-59
2024/02/25 02:57:07;;;;;;;4.90;2.22;;;;;;;;;;5088754;28;20137;-59
2024/02/25 02:59:34;;;;;;;3.60;1.70;;;;;;;;;;5091178;28;20628;-58
2024/02/25 03:02:00;;;;;;;2.38;1.50;;;;;;;;;;5083303;28;20523;-58
2024/02/25 03:04:27;;;;;;;4.15;2.08;;;;;;;;;;5101684;28;20020;-59
2024/02/25 03:06:54;;;;;;;4.70;2.25;;;;;;;;;;5097936;28;20063;-58
2024/02/25 03:09:20;;;;;;;2.85;1.63;;;;;;;;;;5096329;28;20042;-58
2024/02/25 03:11:46;;;;;;;3.53;2.17;;;;;;;;;;5099827;28;20027;-58
2024/02/25 03:14:12;;;;;;;3.17;2.33;;;;;;;;;;5110329;28;20034;-58
2024/02/25 03:16:39;;;;;;;4.95;2.28;;;;;;;;;;5110621;28;20114;-58
2024/02/25 03:19:05;;;;;;;4.50;1.88;;;;;;;;;;5107925;28;20032;-58
2024/02/25 03:21:31;;;;;;;3.53;2.00;;;;;;;;;;5086337;28;20040;-58
2024/02/25 03:23:57;;;;;;;4.78;1.60;;;;;;;;;;5103832;28;20039;-58
2024/02/25 03:26:23;;;;;;;3.63;1.88;;;;;;;;;;5091913;28;20047;-59
2024/02/25 03:28:49;;;;;;;3.85;2.30;;;;;;;;;;5102713;28;20032;-58
2024/02/25 03:31:15;;;;;;;6.93;3.10;;;;;;;;;;5101118;28;20032;-58
2024/02/25 03:33:41;;;;;;;3.47;2.08;;;;;;;;;;5095922;28;20391;-58
2024/02/25 03:36:07;;;;;;;4.47;2.13;;;;;;;;;;5105337;28;20024;-57
2024/02/25 03:38:33;;;;;;;4.43;2.35;;;;;;;;;;5085718;28;20031;-58
2024/02/25 03:40:59;;;;;;;3.60;2.25;;;;;;;;;;5094432;28;20106;-59
2024/02/25 03:43:26;;;;;;;5.63;1.80;;;;;;;;;;5110792;28;20020;-58
2024/02/25 03:45:52;;;;;;;4.00;2.47;;;;;;;;;;5105989;28;20042;-58
2024/02/25 03:48:18;;;;;;;5.28;2.75;;;;;;;;;;5102104;28;20027;-58
2024/02/25 03:50:44;;;;;;;4.47;2.20;;;;;;;;;;5098877;28;20040;-58
2024/02/25 03:53:09;;;;;;;5.85;2.53;;;;;;;;;;5106540;28;20020;-57
2024/02/25 03:55:35;;;;;;;3.72;2.33;;;;;;;;;;5079279;28;20035;-59
2024/02/25 03:58:02;;;;;;;4.95;2.65;;;;;;;;;;5101988;28;20040;-58
2024/02/25 04:00:28;;;;;;;5.03;2.60;;;;;;;;;;5106461;28;20623;-58
2024/02/25 04:02:54;;;;;;;5.07;2.50;;;;;;;;;;5094532;28;20395;-58
2024/02/25 04:05:20;;;;;;;4.22;2.33;;;;;;;;;;5094206;28;20035;-58
2024/02/25 04:07:46;;;;;;;4.40;2.60;;;;;;;;;;5099457;28;20031;-58
2024/02/25 04:10:13;;;;;;;3.88;2.50;;;;;;;;;;5092386;28;20018;-59
2024/02/25 04:12:39;;;;;;;4.18;2.47;;;;;;;;;;5107054;28;20084;-58
2024/02/25 04:15:07;;;;;;;6.53;2.38;;;;;;;;;;5114411;28;20077;-58
2024/02/25 04:17:33;;;;;;;3.70;2.40;;;;;;;;;;5103601;28;20070;-58
2024/02/25 04:20:00;;;;;;;3.97;2.78;;;;;;;;;;5095656;28;20028;-58
2024/02/25 04:22:26;;;;;;;6.25;2.10;;;;;;;;;;5104206;28;20047;-58
2024/02/25 04:24:52;;;;;;;4.53;3.08;;;;;;;;;;5087710;28;20036;-58
2024/02/25 04:27:18;;;;;;;4.85;2.55;;;;;;;;;;5094726;28;20031;-58
2024/02/25 04:29:45;;;;;;;4.32;2.80;;;;;;;;;;5095992;28;20081;-58
2024/02/25 04:32:12;;;;;;;4.82;3.08;;;;;;;;;;5105217;28;20040;-58
2024/02/25 04:34:38;;;;;;;3.60;2.50;;;;;;;;;;5113228;28;20024;-58
2024/02/25 04:37:04;;;;;;;6.10;3.20;;;;;;;;;;5100222;28;20023;-58
2024/02/25 04:39:30;;;;;;;7.75;3.25;;;;;;;;;;5114915;28;20019;-58
2024/02/25 04:41:56;;;;;;;5.95;2.90;;;;;;;;;;5109272;28;20024;-59
2024/02/25 04:44:22;;;;;;;4.38;2.50;;;;;;;;;;5091369;28;20036;-58
2024/02/25 04:46:48;;;;;;;5.80;3.03;;;;;;;;;;5108617;28;20529;-58
2024/02/25 04:49:16;;;;;;;7.43;3.30;;;;;;;;;;5093991;28;20162;-58
2024/02/25 04:51:43;;;;;;;4.50;2.40;;;;;;;;;;5096110;28;20027;-58
2024/02/25 04:54:10;;;;;;;4.85;2.10;;;;;;;;;;5109390;28;20024;-58
2024/02/25 04:56:36;;;;;;;4.75;2.42;;;;;;;;;;5094509;28;20024;-58
2024/02/25 04:59:02;;;;;;;3.70;2.60;;;;;;;;;;5094838;28;20032;-59
2024/02/25 05:01:28;;;;;;;4.78;2.50;;;;;;;;;;5092410;28;20408;-58
2024/02/25 05:03:53;;;;;;;3.70;2.40;;;;;;;;;;5079822;28;20368;-58
2024/02/25 05:06:19;;;;;;;3.58;2.47;;;;;;;;;;5093414;28;20027;-58
2024/02/25 05:08:45;;;;;;;6.97;3.10;;;;;;;;;;5093940;28;20036;-58
2024/02/25 05:11:11;;;;;;;4.70;2.75;;;;;;;;;;5097015;28;20040;-58
2024/02/25 05:13:37;;;;;;;5.63;2.70;;;;;;;;;;5098961;28;20020;-58
2024/02/25 05:16:07;;;;;;;3.70;2.40;;;;;;;;;;5095143;28;20030;-59
2024/02/25 05:18:33;;;;;;;3.92;2.80;;;;;;;;;;5092594;28;20054;-58
2024/02/25 05:20:59;;;;;;;4.85;2.53;;;;;;;;;;5093223;28;20115;-58
2024/02/25 05:23:25;;;;;;;4.65;2.80;;;;;;;;;;5096794;28;20563;-58
2024/02/25 05:25:51;;;;;;;6.43;3.22;;;;;;;;;;5093162;28;20079;-58
2024/02/25 05:28:17;;;;;;;5.95;3.30;;;;;;;;;;5100387;28;20027;-58
2024/02/25 05:30:43;;;;;;;4.50;3.08;;;;;;;;;;5097933;28;20517;-58
2024/02/25 05:33:09;;;;;;;4.60;2.85;;;;;;;;;;5103285;28;20064;-59
2024/02/25 05:35:36;;;;;;;5.90;2.63;;;;;;;;;;5092267;28;20039;-58
2024/02/25 05:38:02;;;;;;;5.38;3.10;;;;;;;;;;5086149;28;20033;-58
2024/02/25 05:40:28;;;;;;;4.25;2.92;;;;;;;;;;5093326;28;20038;-58
2024/02/25 05:42:54;;;;;;;6.45;3.22;;;;;;;;;;5091181;28;20103;-58
2024/02/25 05:45:20;;;;;;;4.82;2.55;;;;;;;;;;5100949;28;20027;-58
2024/02/25 05:47:46;;;;;;;5.28;3.38;;;;;;;;;;5092893;28;20085;-58
2024/02/25 05:50:12;;;;;;;6.47;3.35;;;;;;;;;;5100633;28;20039;-58
2024/02/25 05:52:38;;;;;;;7.55;3.28;;;;;;;;;;5091314;28;20032;-58
2024/02/25 05:55:04;;;;;;;6.05;3.00;;;;;;;;;;5096769;28;20070;-58
2024/02/25 05:57:30;;;;;;;5.05;3.28;;;;;;;;;;5100861;28;20099;-58
2024/02/25 05:59:57;;;;;;;5.20;2.90;;;;;;;;;;5089297;28;20024;-58
2024/02/25 06:02:23;;;;;;;5.32;3.05;;;;;;;;;;5089769;28;20024;-58
2024/02/25 06:04:49;;;;;;;4.97;3.05;;;;;;;;;;5094325;28;20024;-58
2024/02/25 06:07:15;;;;;;;6.18;3.58;;;;;;;;;;5091273;28;20042;-58
2024/02/25 06:09:41;;;;;;;5.65;3.45;;;;;;;;;;5097384;28;20035;-56
2024/02/25 06:12:07;;;;;;;9.85;4.20;;;;;;;;;;5094289;28;20024;-54
2024/02/25 06:14:33;;;;;;;9.93;3.85;;;;;;;;;;5091386;28;20520;-58
2024/02/25 06:16:59;;;;;;;5.80;3.75;;;;;;;;;;5089575;28;20127;-58
2024/02/25 06:19:25;;;;;;;5.63;3.05;;;;;;;;;;5073489;28;20020;-58
2024/02/25 06:21:51;;;;;;;6.75;3.70;;;;;;;;;;5088233;28;20495;-58
2024/02/25 06:24:17;;;;;;;7.72;4.32;;;;;;;;;;5092644;28;20027;-60
2024/02/25 06:26:46;;;;;;;7.90;3.85;;;;;;;;;;5090852;28;20027;-57
2024/02/25 06:29:12;;;;;;;6.18;3.75;;;;;;;;;;5085446;28;20020;-58
2024/02/25 06:31:38;;;;;;;8.32;4.80;;;;;;;;;;5092065;28;20036;-58
2024/02/25 06:34:04;;;;;;;8.85;4.63;;;;;;;;;;5090932;28;20032;-58
2024/02/25 06:36:30;;;;;;;8.13;4.75;;;;;;;;;;5092100;28;20043;-55
2024/02/25 06:38:57;;;;;;;9.63;4.82;;;;;;;;;;5093827;28;20028;-58
2024/02/25 06:41:24;;;;;;;9.95;5.10;;;;;;;;;;5090769;28;20024;-57
2024/02/25 06:43:52;;;;;;;9.73;5.07;;;;;;;;;;5098148;28;20674;-58
2024/02/25 06:46:18;;;;;;;6.85;4.15;;;;;;;;;;5102462;28;20027;-53
2024/02/25 06:48:44;;;;;;;8.52;4.00;;;;;;;;;;5089092;28;20028;-58
2024/02/25 06:51:20;;;;;;;6.68;4.03;;;;;;;;;;5090642;28;20028;-58
2024/02/25 06:53:46;;;;;;;6.90;4.00;;;;;;;;;;5099192;28;20048;-58
2024/02/25 06:56:12;;;;;;;6.80;3.80;;;;;;;;;;5090708;28;20032;-59
2024/02/25 06:58:38;;;;;;;5.32;3.85;;;;;;;;;;5088478;28;20103;-59
2024/02/25 07:01:04;;;;;;;8.18;4.10;;;;;;;;;;5090834;28;20043;-58
2024/02/25 07:03:30;;;;;;;8.82;4.05;;;;;;;;;;5089276;28;20037;-59
2024/02/25 07:05:56;;;;;;;8.85;4.22;;;;;;;;;;5090820;28;20020;-58
2024/02/25 07:08:22;;;;;;;6.47;4.47;;;;;;;;;;5094474;28;20044;-58
2024/02/25 07:10:50;;;;;;;9.52;4.32;;;;;;;;;;5099305;28;20038;-59
2024/02/25 07:13:16;;;;;;;8.95;4.60;;;;;;;;;;5092608;28;20073;-56
2024/02/25 07:15:42;;;;;;;9.70;5.45;;;;;;;;;;5096839;28;20399;-58
2024/02/25 07:18:08;;;;;;;7.53;4.75;;;;;;;;;;5104031;28;20042;-58
2024/02/25 07:20:34;;;;;;;10.10;5.15;;;;;;;;;;5105152;28;20031;-58
2024/02/25 07:23:00;;;;;;;8.45;5.22;;;;;;;;;;5097075;28;20019;-58
2024/02/25 07:25:26;;;;;;;11.48;5.20;;;;;;;;;;5094528;28;20031;-58
2024/02/25 07:27:52;;;;;;;10.15;5.30;;;;;;;;;;5094115;28;20039;-58
2024/02/25 07:30:19;;;;;;;9.02;4.85;;;;;;;;;;5093661;28;20126;-58
2024/02/25 07:32:45;;;;;;;6.88;4.30;;;;;;;;;;5097099;28;20498;-58
2024/02/25 07:35:11;;;;;;;8.85;4.95;;;;;;;;;;5092697;28;20483;-58
2024/02/25 07:37:37;;;;;;;7.68;5.05;;;;;;;;;;5096791;28;20086;-56
2024/02/25 07:40:04;;;;;;;48.70;23.58;;;;;;;;;;5093408;28;20107;-57
2024/02/25 07:42:30;;;;;;;35.83;14.70;;;;;;;;;;5096795;28;20526;-58
2024/02/25 07:44:56;;;;;;;27.52;19.50;;;;;;;;;;5102228;28;20459;-58
2024/02/25 07:47:22;;;;;;;9.60;5.40;;;;;;;;;;5092581;28;20027;-53
2024/02/25 07:49:48;;;;;;;10.27;7.82;;;;;;;;;;5094304;28;20028;-52
2024/02/25 07:52:14;;;;;;;11.07;6.55;;;;;;;;;;5092792;28;20145;-55
2024/02/25 07:54:40;;;;;;;9.90;6.57;;;;;;;;;;5094090;28;20367;-52
2024/02/25 07:57:06;;;;;;;8.27;5.22;;;;;;;;;;5079232;28;20028;-51
2024/02/25 07:59:32;;;;;;;13.93;6.38;;;;;;;;;;5094296;28;20395;-54
2024/02/25 08:01:58;;;;;;;16.90;11.35;;;;;;;;;;5097711;28;20038;-52
2024/02/25 08:04:24;;;;;;;12.68;5.63;;;;;;;;;;5093165;28;20467;-50
2024/02/25 08:06:50;;;;;;;18.02;15.57;;;;;;;;;;5098906;28;20020;-53
2024/02/25 08:09:16;;;;;;;9.10;4.82;;;;;;;;;;5095674;28;20042;-53
2024/02/25 08:11:42;;;;;;;18.65;11.85;;;;;;;;;;5095777;28;20498;-52
2024/02/25 08:14:08;;;;;;;8.77;5.68;;;;;;;;;;5094453;28;20023;-53
2024/02/25 08:16:37;;;;;;;7.28;4.38;;;;;;;;;;5093128;28;20554;-53
2024/02/25 08:19:03;;;;;;;8.70;5.30;;;;;;;;;;5091667;28;20468;-52
2024/02/25 08:21:30;;;;;;;8.07;4.43;;;;;;;;;;5096782;28;20055;-52
2024/02/25 08:23:56;;;;;;;10.45;5.57;;;;;;;;;;5094827;28;20024;-52
2024/02/25 08:26:21;;;;;;;6.75;4.10;;;;;;;;;;5093392;28;20495;-51
2024/02/25 08:28:48;;;;;;;6.85;4.65;;;;;;;;;;5074057;28;20399;-53
2024/02/25 08:31:13;;;;;;;10.23;4.97;;;;;;;;;;5092630;28;20077;-51
2024/02/25 08:33:39;;;;;;;7.00;4.00;;;;;;;;;;5091724;28;20028;-53
2024/02/25 08:36:05;;;;;;;6.25;3.70;;;;;;;;;;5090512;28;20092;-55
2024/02/25 08:38:31;;;;;;;6.75;4.60;;;;;;;;;;5092467;28;20475;-54
2024/02/25 08:40:57;;;;;;;7.32;4.55;;;;;;;;;;5092499;28;20050;-53
2024/02/25 08:43:23;;;;;;;5.93;3.78;;;;;;;;;;5087070;28;20024;-51
2024/02/25 08:45:49;;;;;;;6.70;4.00;;;;;;;;;;5093648;28;20028;-54
2024/02/25 08:48:15;;;;;;;7.55;4.20;;;;;;;;;;5093223;28;20051;-52
2024/02/25 08:50:41;;;;;;;7.95;4.60;;;;;;;;;;5096435;28;20036;-52
2024/02/25 08:53:07;;;;;;;7.43;3.95;;;;;;;;;;5095431;28;20043;-53
2024/02/25 08:55:33;;;;;;;8.43;5.18;;;;;;;;;;5092873;28;20036;-52
2024/02/25 08:57:59;;;;;;;7.28;3.92;;;;;;;;;;5088483;28;20075;-58
2024/02/25 09:00:25;;;;;;;5.95;3.92;;;;;;;;;;5092305;28;20462;-59
2024/02/25 09:02:52;;;;;;;6.20;4.05;;;;;;;;;;5092652;28;20028;-58
2024/02/25 09:05:18;;;;;;;7.82;4.50;;;;;;;;;;5087725;28;20050;-58
2024/02/25 09:07:44;;;;;;;6.43;3.70;;;;;;;;;;5098702;28;20027;-59
2024/02/25 09:10:13;;;;;;;8.05;4.10;;;;;;;;;;5095890;28;20024;-58
2024/02/25 09:12:39;;;;;;;6.78;4.05;;;;;;;;;;5092333;28;20020;-59
2024/02/25 09:15:06;;;;;;;8.73;4.72;;;;;;;;;;5104373;28;20043;-58
2024/02/25 09:17:32;;;;;;;4.78;3.40;;;;;;;;;;5087254;28;20123;-58
2024/02/25 09:19:58;;;;;;;7.85;3.53;;;;;;;;;;5082125;28;20027;-58
2024/02/25 09:22:24;;;;;;;5.53;3.85;;;;;;;;;;5074701;28;20078;-59
2024/02/25 09:24:50;;;;;;;5.57;3.00;;;;;;;;;;5077720;28;20039;-59
2024/02/25 09:27:16;;;;;;;7.75;3.42;;;;;;;;;;5083997;28;20020;-58
2024/02/25 09:29:42;;;;;;;6.80;2.72;;;;;;;;;;5083913;28;20419;-58
2024/02/25 09:32:08;;;;;;;6.15;3.30;;;;;;;;;;5090569;28;20025;-58
2024/02/25 09:34:34;;;;;;;4.65;2.55;;;;;;;;;;5087076;28;20032;-59
2024/02/25 09:37:00;;;;;;;4.03;2.35;;;;;;;;;;5090221;28;20067;-59
2024/02/25 09:39:25;;;;;;;5.03;2.65;;;;;;;;;;5073077;28;20028;-57
2024/02/25 09:41:52;;;;;;;3.22;1.83;;;;;;;;;;5078689;28;20251;-59
2024/02/25 09:44:22;;;;;;;3.33;2.13;;;;;;;;;;5083140;28;20051;-60
2024/02/25 09:46:49;;;;;;;4.65;2.17;;;;;;;;;;5092086;28;20059;-60
2024/02/25 09:49:15;;;;;;;3.50;1.75;;;;;;;;;;5083999;28;20043;-60
2024/02/25 09:51:42;;;;;;;2.22;1.73;;;;;;;;;;5083075;28;20556;-59
2024/02/25 09:54:08;;;;;;;4.28;1.67;;;;;;;;;;5089029;28;20388;-60
2024/02/25 09:56:34;;;;;;;3.08;1.83;;;;;;;;;;5077149;28;20031;-59
2024/02/25 09:59:00;;;;;;;3.00;1.65;;;;;;;;;;5070081;28;20021;-60
2024/02/25 10:01:26;;;;;;;3.40;1.67;;;;;;;;;;5069629;28;20111;-59
2024/02/25 10:03:52;;;;;;;3.42;1.65;;;;;;;;;;5071545;28;20439;-60
2024/02/25 10:06:18;;;;;;;5.30;1.80;;;;;;;;;;5067662;28;20529;-59
2024/02/25 10:08:48;;;;;;;3.53;1.80;;;;;;;;;;5070327;28;20487;-57
2024/02/25 10:11:14;;;;;;;4.97;1.83;;;;;;;;;;5070439;28;20031;-57
2024/02/25 10:13:43;;;;;;;2.83;1.85;;;;;;;;;;5072377;28;20032;-57
2024/02/25 10:16:16;;;;;;;2.63;1.60;;;;;;;;;;5069966;28;20020;-56
2024/02/25 10:18:42;;;;;;;3.15;1.60;;;;;;;;;;5089871;28;20036;-57
2024/02/25 10:21:08;;;;;;;2.65;1.65;;;;;;;;;;5088569;28;20059;-57
2024/02/25 10:23:35;;;;;;;3.42;1.73;;;;;;;;;;5084925;28;20049;-57
2024/02/25 10:26:14;;;;;;;3.33;1.65;;;;;;;;;;5089717;28;20040;-57
2024/02/25 10:28:43;;;;;;;4.25;1.38;;;;;;;;;;5088847;28;20385;-58
2024/02/25 10:31:11;;;;;;;4.57;1.40;;;;;;;;;;5087345;28;20040;-57
2024/02/25 10:33:38;;;;;;;2.17;1.40;;;;;;;;;;5089067;28;20028;-57
2024/02/25 10:36:18;;;;;;;2.28;1.20;;;;;;;;;;5089977;28;20121;-57
2024/02/25 10:38:45;;;;;;;5.95;1.48;;;;;;;;;;5084520;28;20468;-58
2024/02/25 10:41:11;;;;;;;2.38;1.60;;;;;;;;;;5080981;28;20100;-58
2024/02/25 10:43:38;;;;;;;2.55;0.90;;;;;;;;;;5076844;28;20028;-57
2024/02/25 10:46:15;;;;;;;1.33;0.68;;;;;;;;;;5083953;28;20526;-55
2024/02/25 10:48:42;;;;;;;1.88;1.10;;;;;;;;;;5081056;28;20032;-55
2024/02/25 10:51:09;;;;;;;2.28;0.98;;;;;;;;;;5080982;28;20032;-57
2024/02/25 10:53:41;;;;;;;1.20;0.80;;;;;;;;;;5083957;28;20028;-58
2024/02/25 10:56:07;;;;;;;2.47;1.35;;;;;;;;;;5084410;28;20111;-59
2024/02/25 10:58:33;;;;;;;2.50;1.08;;;;;;;;;;5080464;28;20476;-57
2024/02/25 11:01:00;;;;;;;7.53;4.07;;;;;;;;;;5096182;28;20544;-59
2024/02/25 11:03:26;;;;;;;2.17;1.63;;;;;;;;;;5096012;28;20028;-58
2024/02/25 11:05:54;;;;;;;4.07;0.90;;;;;;;;;;5085691;28;20484;-58
2024/02/25 11:08:33;;;;;;;18.48;13.65;;;;;;;;;;5089914;28;20120;-58
2024/02/25 11:10:59;;;;;;;5.97;2.92;;;;;;;;;;5086097;28;20720;-57
2024/02/25 11:13:26;;;;;;;2.15;1.27;;;;;;;;;;5088076;28;20071;-59
2024/02/25 11:15:54;;;;;;;2.22;1.27;;;;;;;;;;5084668;28;20031;-57
2024/02/25 11:18:26;;;;;;;2.15;1.00;;;;;;;;;;5074534;28;20083;-60
2024/02/25 11:21:08;;;;;;;9.02;6.43;;;;;;;;;;5073069;28;20031;-61
2024/02/25 11:23:45;;;;;;;1.83;0.73;;;;;;;;;;5077926;28;20073;-61
2024/02/25 11:26:29;;;;;;;5.30;2.70;;;;;;;;;;5076146;28;20032;-61
2024/02/25 11:29:20;;;;;;;2.08;0.80;;;;;;;;;;5072404;28;20485;-60
2024/02/25 11:31:52;;;;;;;0.93;0.50;;;;;;;;;;5075692;28;20031;-60
2024/02/25 11:34:22;;;;;;;2.08;0.70;;;;;;;;;;5068963;28;20127;-59
2024/02/25 11:36:50;;;;;;;1.75;0.82;;;;;;;;;;5078826;28;20016;-60
2024/02/25 11:39:16;;;;;;;1.25;0.50;;;;;;;;;;5070460;28;20028;-59
2024/02/25 11:41:43;;;;;;;0.88;0.50;;;;;;;;;;5071749;28;20032;-61
2024/02/25 11:44:09;;;;;;;0.80;0.50;;;;;;;;;;5067615;28;20028;-61
2024/02/25 11:46:35;;;;;;;0.85;0.50;;;;;;;;;;5070695;28;20070;-61
2024/02/25 11:49:01;;;;;;;2.80;0.63;;;;;;;;;;5064679;28;20035;-57
2024/02/25 11:51:27;;;;;;;0.75;0.40;;;;;;;;;;5072186;28;20785;-60
2024/02/25 11:53:53;;;;;;;1.05;0.40;;;;;;;;;;5078538;28;20029;-59
2024/02/25 11:56:19;;;;;;;0.90;0.40;;;;;;;;;;5076942;28;20016;-60
2024/02/25 11:58:45;;;;;;;0.57;0.30;;;;;;;;;;5085162;28;20031;-60
2024/02/25 12:01:11;;;;;;;0.95;0.25;;;;;;;;;;5075346;28;20032;-60
2024/02/25 12:03:38;;;;;;;1.20;0.40;;;;;;;;;;5083360;28;20100;-60
2024/02/25 12:06:04;;;;;;;0.90;0.40;;;;;;;;;;5074430;28;20016;-59
2024/02/25 12:08:31;;;;;;;1.65;0.45;;;;;;;;;;5073453;28;20099;-60
2024/02/25 12:10:57;;;;;;;1.17;0.50;;;;;;;;;;5082416;28;20479;-60
2024/02/25 12:13:23;;;;;;;1.67;0.50;;;;;;;;;;5074380;28;20472;-59
2024/02/25 12:15:50;;;;;;;1.45;0.43;;;;;;;;;;5071906;28;20078;-59
2024/02/25 12:18:16;;;;;;;1.63;0.52;;;;;;;;;;5078029;28;20040;-60
2024/02/25 12:20:42;;;;;;;1.17;0.40;;;;;;;;;;5075233;28;20032;-59
2024/02/25 12:23:09;;;;;;;3.08;0.50;;;;;;;;;;5084596;28;20039;-60
2024/02/25 12:25:35;;;;;;;0.30;0.28;;;;;;;;;;5085183;28;20028;-60
2024/02/25 12:28:08;;;;;;;1.63;0.45;;;;;;;;;;5087416;28;20115;-56
2024/02/25 12:30:37;;;;;;;0.73;0.43;;;;;;;;;;5097471;28;20032;-56
2024/02/25 12:33:09;;;;;;;1.55;0.80;;;;;;;;;;5092036;28;20032;-55
2024/02/25 12:35:36;;;;;;;2.25;0.60;;;;;;;;;;5092110;28;20028;-57
2024/02/25 12:38:03;;;;;;;1.00;0.32;;;;;;;;;;5074412;28;20547;-57
2024/02/25 12:40:29;;;;;;;0.65;0.30;;;;;;;;;;5091996;28;20038;-56
2024/02/25 12:42:57;;;;;;;1.67;0.47;;;;;;;;;;5092462;28;20060;-56
2024/02/25 12:45:23;;;;;;;1.48;0.80;;;;;;;;;;5092861;28;20028;-56
2024/02/25 12:47:49;;;;;;;1.20;0.40;;;;;;;;;;5100848;28;20032;-55
2024/02/25 12:50:15;;;;;;;0.77;0.30;;;;;;;;;;5096420;28;20120;-57
2024/02/25 12:52:42;;;;;;;0.70;0.38;;;;;;;;;;5092870;28;20024;-55
2024/02/25 12:55:09;;;;;;;1.10;0.50;;;;;;;;;;5099504;28;20040;-55
2024/02/25 12:57:36;;;;;;;1.20;0.47;;;;;;;;;;5092155;28;20024;-57
2024/02/25 13:00:02;;;;;;;0.47;0.40;;;;;;;;;;5092770;28;20016;-56
2024/02/25 13:02:28;;;;;;;0.77;0.40;;;;;;;;;;5092046;28;20157;-55
2024/02/25 13:04:54;;;;;;;1.05;0.40;;;;;;;;;;5091722;28;20036;-56
2024/02/25 13:07:20;;;;;;;0.60;0.35;;;;;;;;;;5079188;28;20039;-57
2024/02/25 13:09:46;;;;;;;0.40;0.30;;;;;;;;;;5092437;28;20438;-54
2024/02/25 13:12:12;;;;;;;0.70;0.40;;;;;;;;;;5091709;28;20027;-55
2024/02/25 13:14:38;;;;;;;0.47;0.30;;;;;;;;;;5092242;28;20023;-57
2024/02/25 13:17:05;;;;;;;1.90;0.30;;;;;;;;;;5090357;28;20043;-56
2024/02/25 13:19:31;;;;;;;0.70;0.30;;;;;;;;;;5079418;28;20031;-57
2024/02/25 13:21:57;;;;;;;0.85;0.50;;;;;;;;;;5078414;28;20414;-56
2024/02/25 13:24:23;;;;;;;2.13;0.77;;;;;;;;;;5072848;28;20036;-55
2024/02/25 13:26:49;;;;;;;0.50;0.28;;;;;;;;;;5075564;28;20024;-55
2024/02/25 13:29:15;;;;;;;1.42;0.40;;;;;;;;;;5071472;28;20036;-55
2024/02/25 13:31:41;;;;;;;1.00;0.32;;;;;;;;;;5073662;28;20032;-55
2024/02/25 13:34:07;;;;;;;1.75;0.30;;;;;;;;;;5072037;28;20024;-54
2024/02/25 13:36:36;;;;;;;0.47;0.30;;;;;;;;;;5074724;28;20400;-54
2024/02/25 13:39:03;;;;;;;0.73;0.30;;;;;;;;;;5073070;28;20112;-56
2024/02/25 13:41:30;;;;;;;1.33;0.30;;;;;;;;;;5070644;28;20087;-57
2024/02/25 13:43:56;;;;;;;1.55;0.55;;;;;;;;;;5078884;28;20035;-57
2024/02/25 13:46:22;;;;;;;1.52;0.40;;;;;;;;;;5085297;28;20032;-57
2024/02/25 13:48:49;;;;;;;0.68;0.35;;;;;;;;;;5080949;28;20425;-57
2024/02/25 13:51:15;;;;;;;0.45;0.30;;;;;;;;;;5074863;28;20472;-56
2024/02/25 13:53:41;;;;;;;1.40;0.60;;;;;;;;;;5070564;28;20020;-57
2024/02/25 13:56:07;;;;;;;0.95;0.60;;;;;;;;;;5070782;28;20538;-56
2024/02/25 13:58:33;;;;;;;1.35;0.75;;;;;;;;;;5065117;28;20488;-56
2024/02/25 14:01:00;;;;;;;0.75;0.50;;;;;;;;;;5069341;28;20021;-56
2024/02/25 14:03:26;;;;;;;0.98;0.57;;;;;;;;;;5070089;28;20024;-56
2024/02/25 14:05:52;;;;;;;1.80;0.43;;;;;;;;;;5067282;28;20043;-56
2024/02/25 14:08:18;;;;;;;0.95;0.63;;;;;;;;;;5071090;28;20025;-56
2024/02/25 14:10:44;;;;;;;0.70;0.50;;;;;;;;;;5069811;28;20134;-56
2024/02/25 14:13:10;;;;;;;1.65;0.43;;;;;;;;;;5069391;28;20321;-56
2024/02/25 14:15:36;;;;;;;1.00;0.50;;;;;;;;;;5071160;28;20032;-56
2024/02/25 14:18:04;;;;;;;1.75;0.75;;;;;;;;;;5083617;28;20048;-55
2024/02/25 14:20:34;;;;;;;1.23;0.60;;;;;;;;;;5088594;28;20160;-56
2024/02/25 14:23:01;;;;;;;0.98;0.40;;;;;;;;;;5090568;28;20081;-56
2024/02/25 14:25:27;;;;;;;1.92;0.52;;;;;;;;;;5089425;28;20151;-56
2024/02/25 14:27:53;;;;;;;0.93;0.50;;;;;;;;;;5088095;28;20399;-55
2024/02/25 14:30:19;;;;;;;1.85;0.60;;;;;;;;;;5090171;28;20016;-56
2024/02/25 14:32:45;;;;;;;1.48;0.60;;;;;;;;;;5086485;28;20032;-56
2024/02/25 14:35:13;;;;;;;1.13;0.45;;;;;;;;;;5093526;28;20032;-55
2024/02/25 14:37:40;;;;;;;1.92;0.77;;;;;;;;;;5089107;28;20028;-56
2024/02/25 14:40:07;;;;;;;1.70;0.50;;;;;;;;;;5092669;28;20024;-56